sensor_id;sensor_type;location;lat;lon;timestamp;pressure;altitude;pressure_sealevel;temperature;humidity
61337;BME280;47212;41.326;2.104;2023-07-29T00:01:29;101255.16;;;26.79;83.42
61337;BME280;47212;41.326;2.104;2023-07-29T00:06:34;101249.13;;;26.77;83.27
61337;BME280;47212;41.326;2.104;2023-07-29T00:11:37;101244.69;;;26.76;83.19
61337;BME280;47212;41.326;2.104;2023-07-29T00:16:39;101242.28;;;26.74;83.23
61337;BME280;47212;41.326;2.104;2023-07-29T00:21:44;101249.03;;;26.73;83.00
61337;BME280;47212;41.326;2.104;2023-07-29T00:26:46;101241.47;;;26.74;82.90
61337;BME280;47212;41.326;2.104;2023-07-29T00:31:49;101235.44;;;26.72;82.78
61337;BME280;47212;41.326;2.104;2023-07-29T00:36:51;101233.00;;;26.70;82.17
61337;BME280;47212;41.326;2.104;2023-07-29T00:41:53;101230.09;;;26.66;82.07
61337;BME280;47212;41.326;2.104;2023-07-29T00:46:56;101213.25;;;26.63;81.67
61337;BME280;47212;41.326;2.104;2023-07-29T00:51:59;101214.78;;;26.60;81.62
61337;BME280;47212;41.326;2.104;2023-07-29T00:57:02;101211.91;;;26.57;81.13
61337;BME280;47212;41.326;2.104;2023-07-29T01:05:16;101193.34;;;26.49;80.96
61337;BME280;47212;41.326;2.104;2023-07-29T01:10:30;101187.69;;;26.45;80.86
61337;BME280;47212;41.326;2.104;2023-07-29T01:15:53;101192.38;;;26.41;80.84
61337;BME280;47212;41.326;2.104;2023-07-29T01:21:04;101190.28;;;26.38;80.60
61337;BME280;47212;41.326;2.104;2023-07-29T01:26:07;101193.06;;;26.38;80.49
61337;BME280;47212;41.326;2.104;2023-07-29T01:31:13;101200.63;;;26.38;80.58
61337;BME280;47212;41.326;2.104;2023-07-29T01:36:23;101202.63;;;26.37;80.45
61337;BME280;47212;41.326;2.104;2023-07-29T01:41:28;101192.53;;;26.32;80.29
61337;BME280;47212;41.326;2.104;2023-07-29T01:46:33;101200.78;;;26.29;80.06
61337;BME280;47212;41.326;2.104;2023-07-29T01:51:37;101193.84;;;26.23;80.08
61337;BME280;47212;41.326;2.104;2023-07-29T01:56:40;101197.34;;;26.20;80.06
61337;BME280;47212;41.326;2.104;2023-07-29T02:01:42;101184.81;;;26.14;80.11
61337;BME280;47212;41.326;2.104;2023-07-29T02:06:44;101186.25;;;26.08;80.01
61337;BME280;47212;41.326;2.104;2023-07-29T02:11:51;101183.00;;;26.06;80.40
61337;BME280;47212;41.326;2.104;2023-07-29T02:16:53;101173.00;;;26.05;80.14
61337;BME280;47212;41.326;2.104;2023-07-29T02:21:55;101183.72;;;26.02;80.14
61337;BME280;47212;41.326;2.104;2023-07-29T02:26:58;101173.25;;;25.99;80.26
61337;BME280;47212;41.326;2.104;2023-07-29T02:32:01;101170.00;;;25.97;80.19
61337;BME280;47212;41.326;2.104;2023-07-29T02:37:07;101163.50;;;25.93;80.13
61337;BME280;47212;41.326;2.104;2023-07-29T02:42:09;101161.44;;;25.90;80.30
61337;BME280;47212;41.326;2.104;2023-07-29T02:47:14;101159.34;;;25.87;79.98
61337;BME280;47212;41.326;2.104;2023-07-29T02:52:21;101168.88;;;25.86;80.54
61337;BME280;47212;41.326;2.104;2023-07-29T02:57:23;101163.31;;;25.86;80.67
61337;BME280;47212;41.326;2.104;2023-07-29T03:02:26;101170.41;;;25.84;80.74
61337;BME280;47212;41.326;2.104;2023-07-29T03:07:32;101159.63;;;25.82;80.71
61337;BME280;47212;41.326;2.104;2023-07-29T03:12:34;101156.00;;;25.82;80.89
61337;BME280;47212;41.326;2.104;2023-07-29T03:17:36;101160.78;;;25.81;80.86
61337;BME280;47212;41.326;2.104;2023-07-29T03:22:40;101142.44;;;25.80;80.89
61337;BME280;47212;41.326;2.104;2023-07-29T03:27:42;101153.84;;;25.75;80.98
61337;BME280;47212;41.326;2.104;2023-07-29T03:32:44;101155.72;;;25.71;80.98
61337;BME280;47212;41.326;2.104;2023-07-29T03:37:49;101146.44;;;25.67;81.29
61337;BME280;47212;41.326;2.104;2023-07-29T03:42:52;101147.59;;;25.66;81.20
61337;BME280;47212;41.326;2.104;2023-07-29T03:47:58;101145.94;;;25.65;81.28
61337;BME280;47212;41.326;2.104;2023-07-29T03:53:01;101153.19;;;25.66;81.60
61337;BME280;47212;41.326;2.104;2023-07-29T03:58:03;101146.66;;;25.62;81.51
61337;BME280;47212;41.326;2.104;2023-07-29T04:09:25;101146.19;;;25.60;81.50
61337;BME280;47212;41.326;2.104;2023-07-29T04:14:31;101146.19;;;25.60;81.71
61337;BME280;47212;41.326;2.104;2023-07-29T04:19:46;101144.13;;;25.57;81.86
61337;BME280;47212;41.326;2.104;2023-07-29T04:24:55;101153.66;;;25.56;81.79
61337;BME280;47212;41.326;2.104;2023-07-29T04:30:01;101146.44;;;25.55;82.08
61337;BME280;47212;41.326;2.104;2023-07-29T04:35:08;101155.97;;;25.54;81.91
61337;BME280;47212;41.326;2.104;2023-07-29T04:40:15;101161.56;;;25.54;82.01
61337;BME280;47212;41.326;2.104;2023-07-29T04:45:19;101155.53;;;25.52;82.09
61337;BME280;47212;41.326;2.104;2023-07-29T04:50:25;101160.63;;;25.50;82.13
61337;BME280;47212;41.326;2.104;2023-07-29T04:55:30;101159.00;;;25.49;82.15
61337;BME280;47212;41.326;2.104;2023-07-29T05:00:37;101158.22;;;25.48;82.36
61337;BME280;47212;41.326;2.104;2023-07-29T05:05:43;101163.78;;;25.48;82.68
61337;BME280;47212;41.326;2.104;2023-07-29T05:10:55;101163.78;;;25.48;82.53
61337;BME280;47212;41.326;2.104;2023-07-29T05:16:04;101171.78;;;25.50;82.56
61337;BME280;47212;41.326;2.104;2023-07-29T05:21:13;101163.88;;;25.52;82.55
61337;BME280;47212;41.326;2.104;2023-07-29T05:26:20;101170.38;;;25.56;82.76
61337;BME280;47212;41.326;2.104;2023-07-29T05:31:23;101166.88;;;25.59;82.49
61337;BME280;47212;41.326;2.104;2023-07-29T05:36:28;101168.97;;;25.62;82.53
61337;BME280;47212;41.326;2.104;2023-07-29T05:41:33;101172.19;;;25.64;82.42
61337;BME280;47212;41.326;2.104;2023-07-29T05:46:42;101173.81;;;25.65;82.49
61337;BME280;47212;41.326;2.104;2023-07-29T05:51:56;101173.50;;;25.66;82.43
61337;BME280;47212;41.326;2.104;2023-07-29T05:57:01;101183.13;;;25.69;82.05
61337;BME280;47212;41.326;2.104;2023-07-29T06:02:08;101190.78;;;25.72;81.78
61337;BME280;47212;41.326;2.104;2023-07-29T06:07:15;101188.09;;;25.76;82.35
61337;BME280;47212;41.326;2.104;2023-07-29T06:12:17;101190.19;;;25.79;82.17
61337;BME280;47212;41.326;2.104;2023-07-29T06:17:26;101189.59;;;25.85;82.30
61337;BME280;47212;41.326;2.104;2023-07-29T06:22:34;101184.91;;;25.89;82.23
61337;BME280;47212;41.326;2.104;2023-07-29T06:27:43;101191.84;;;25.95;82.17
61337;BME280;47212;41.326;2.104;2023-07-29T06:32:54;101192.44;;;26.01;82.19
61337;BME280;47212;41.326;2.104;2023-07-29T06:38:12;101201.81;;;26.09;81.99
61337;BME280;47212;41.326;2.104;2023-07-29T06:43:22;101200.84;;;26.17;82.02
61337;BME280;47212;41.326;2.104;2023-07-29T06:48:25;101198.69;;;26.26;81.88
61337;BME280;47212;41.326;2.104;2023-07-29T06:53:35;101209.81;;;26.38;81.87
61337;BME280;47212;41.326;2.104;2023-07-29T06:58:41;101216.94;;;26.51;81.50
61337;BME280;47212;41.326;2.104;2023-07-29T07:03:56;101212.19;;;26.67;81.15
61337;BME280;47212;41.326;2.104;2023-07-29T07:09:05;101217.41;;;26.85;81.11
61337;BME280;47212;41.326;2.104;2023-07-29T07:14:15;101219.88;;;27.02;80.89
61337;BME280;47212;41.326;2.104;2023-07-29T07:19:20;101220.31;;;27.20;80.06
61337;BME280;47212;41.326;2.104;2023-07-29T07:24:28;101219.81;;;27.34;79.38
61337;BME280;47212;41.326;2.104;2023-07-29T07:29:39;101222.66;;;27.53;78.63
61337;BME280;47212;41.326;2.104;2023-07-29T07:34:46;101219.75;;;27.65;78.15
61337;BME280;47212;41.326;2.104;2023-07-29T07:39:50;101213.66;;;27.79;76.85
61337;BME280;47212;41.326;2.104;2023-07-29T07:44:58;101214.63;;;27.86;76.92
61337;BME280;47212;41.326;2.104;2023-07-29T07:50:05;101212.13;;;27.81;76.37
61337;BME280;47212;41.326;2.104;2023-07-29T07:55:12;101221.69;;;27.80;76.30
61337;BME280;47212;41.326;2.104;2023-07-29T08:00:18;101221.53;;;27.92;75.47
61337;BME280;47212;41.326;2.104;2023-07-29T08:05:32;101220.06;;;27.79;75.22
61337;BME280;47212;41.326;2.104;2023-07-29T08:10:35;101217.38;;;27.67;75.65
61337;BME280;47212;41.326;2.104;2023-07-29T08:15:46;101208.16;;;27.82;74.79
61337;BME280;47212;41.326;2.104;2023-07-29T08:21:00;101217.41;;;28.06;74.37
61337;BME280;47212;41.326;2.104;2023-07-29T08:26:16;101218.88;;;28.19;74.81
61337;BME280;47212;41.326;2.104;2023-07-29T08:31:27;101210.78;;;28.33;74.44
61337;BME280;47212;41.326;2.104;2023-07-29T08:36:32;101202.19;;;28.45;73.74
61337;BME280;47212;41.326;2.104;2023-07-29T08:47:06;101214.00;;;28.58;73.00
61337;BME280;47212;41.326;2.104;2023-07-29T08:52:18;101213.72;;;28.63;72.36
61337;BME280;47212;41.326;2.104;2023-07-29T08:57:23;101221.75;;;28.65;72.42
61337;BME280;47212;41.326;2.104;2023-07-29T09:02:28;101224.25;;;28.70;72.39
61337;BME280;47212;41.326;2.104;2023-07-29T09:07:41;101225.25;;;28.81;71.36
61337;BME280;47212;41.326;2.104;2023-07-29T09:13:12;101229.31;;;28.83;69.34
61337;BME280;47212;41.326;2.104;2023-07-29T09:18:20;101219.09;;;28.72;71.16
61337;BME280;47212;41.326;2.104;2023-07-29T09:23:49;101227.50;;;28.72;70.92
61337;BME280;47212;41.326;2.104;2023-07-29T09:28:56;101221.56;;;28.77;71.34
61337;BME280;47212;41.326;2.104;2023-07-29T09:34:02;101217.41;;;28.90;71.03
61337;BME280;47212;41.326;2.104;2023-07-29T09:39:13;101215.31;;;29.10;69.67
61337;BME280;47212;41.326;2.104;2023-07-29T09:44:25;101222.28;;;28.93;69.82
61337;BME280;47212;41.326;2.104;2023-07-29T09:49:35;101214.94;;;28.85;70.28
61337;BME280;47212;41.326;2.104;2023-07-29T09:54:52;101227.50;;;28.72;69.63
61337;BME280;47212;41.326;2.104;2023-07-29T09:59:56;101214.28;;;28.72;71.46
61337;BME280;47212;41.326;2.104;2023-07-29T10:05:08;101209.81;;;28.68;72.03
61337;BME280;47212;41.326;2.104;2023-07-29T10:10:14;101220.38;;;28.78;70.33
61337;BME280;47212;41.326;2.104;2023-07-29T10:15:20;101210.63;;;28.91;71.34
61337;BME280;47212;41.326;2.104;2023-07-29T10:20:28;101208.25;;;28.93;71.58
61337;BME280;47212;41.326;2.104;2023-07-29T10:26:02;101200.81;;;29.04;70.43
61337;BME280;47212;41.326;2.104;2023-07-29T10:31:07;101192.72;;;29.26;70.27
61337;BME280;47212;41.326;2.104;2023-07-29T10:36:19;101206.22;;;29.43;69.46
61337;BME280;47212;41.326;2.104;2023-07-29T10:42:08;101190.38;;;29.54;67.44
61337;BME280;47212;41.326;2.104;2023-07-29T10:47:20;101192.81;;;29.56;67.62
61337;BME280;47212;41.326;2.104;2023-07-29T10:52:42;101186.34;;;29.52;68.41
61337;BME280;47212;41.326;2.104;2023-07-29T10:57:52;101188.63;;;29.46;69.39
61337;BME280;47212;41.326;2.104;2023-07-29T11:03:05;101178.81;;;29.33;69.15
61337;BME280;47212;41.326;2.104;2023-07-29T11:08:30;101182.75;;;29.28;67.59
61337;BME280;47212;41.326;2.104;2023-07-29T11:13:40;101169.22;;;29.34;69.28
61337;BME280;47212;41.326;2.104;2023-07-29T11:18:54;101175.38;;;29.43;68.51
61337;BME280;47212;41.326;2.104;2023-07-29T11:24:05;101168.44;;;29.37;68.29
61337;BME280;47212;41.326;2.104;2023-07-29T11:29:09;101163.66;;;29.37;69.20
61337;BME280;47212;41.326;2.104;2023-07-29T11:34:16;101163.09;;;29.51;68.82
61337;BME280;47212;41.326;2.104;2023-07-29T11:39:30;101184.59;;;29.43;69.67
61337;BME280;47212;41.326;2.104;2023-07-29T11:44:39;101158.53;;;29.43;69.54
61337;BME280;47212;41.326;2.104;2023-07-29T11:49:43;101156.81;;;29.61;68.91
61337;BME280;47212;41.326;2.104;2023-07-29T11:54:48;101159.06;;;29.82;68.84
61337;BME280;47212;41.326;2.104;2023-07-29T11:59:55;101149.06;;;29.85;69.34
61337;BME280;47212;41.326;2.104;2023-07-29T12:05:11;101149.25;;;29.65;69.15
61337;BME280;47212;41.326;2.104;2023-07-29T12:10:18;101151.78;;;29.77;69.24
61337;BME280;47212;41.326;2.104;2023-07-29T12:15:30;101142.25;;;29.86;70.00
61337;BME280;47212;41.326;2.104;2023-07-29T12:20:38;101139.53;;;29.93;69.88
61337;BME280;47212;41.326;2.104;2023-07-29T12:25:47;101119.03;;;29.89;69.55
61337;BME280;47212;41.326;2.104;2023-07-29T12:31:00;101128.91;;;29.75;70.32
61337;BME280;47212;41.326;2.104;2023-07-29T12:36:08;101115.63;;;29.69;70.63
61337;BME280;47212;41.326;2.104;2023-07-29T12:41:17;101125.69;;;29.73;70.57
61337;BME280;47212;41.326;2.104;2023-07-29T12:46:29;101133.25;;;29.69;71.34
61337;BME280;47212;41.326;2.104;2023-07-29T12:51:41;101128.00;;;29.64;71.23
61337;BME280;47212;41.326;2.104;2023-07-29T12:56:56;101119.16;;;29.62;68.96
61337;BME280;47212;41.326;2.104;2023-07-29T13:01:59;101121.53;;;29.60;70.16
61337;BME280;47212;41.326;2.104;2023-07-29T13:07:10;101135.97;;;29.62;70.81
61337;BME280;47212;41.326;2.104;2023-07-29T13:12:19;101110.38;;;29.67;70.96
61337;BME280;47212;41.326;2.104;2023-07-29T13:17:27;101107.31;;;29.79;70.12
61337;BME280;47212;41.326;2.104;2023-07-29T13:22:40;101099.75;;;29.84;70.13
61337;BME280;47212;41.326;2.104;2023-07-29T13:27:54;101096.09;;;29.79;69.62
61337;BME280;47212;41.326;2.104;2023-07-29T13:32:57;101081.41;;;29.56;69.49
61337;BME280;47212;41.326;2.104;2023-07-29T13:38:05;101097.34;;;29.48;70.17
61337;BME280;47212;41.326;2.104;2023-07-29T13:43:10;101087.88;;;29.60;71.07
61337;BME280;47212;41.326;2.104;2023-07-29T13:48:15;101076.28;;;29.65;70.22
61337;BME280;47212;41.326;2.104;2023-07-29T13:53:27;101079.84;;;29.59;70.20
61337;BME280;47212;41.326;2.104;2023-07-29T13:58:37;101075.00;;;29.56;70.40
61337;BME280;47212;41.326;2.104;2023-07-29T14:03:44;101092.63;;;29.56;69.42
61337;BME280;47212;41.326;2.104;2023-07-29T14:08:51;101076.03;;;29.44;69.89
61337;BME280;47212;41.326;2.104;2023-07-29T14:13:58;101082.63;;;29.29;70.10
61337;BME280;47212;41.326;2.104;2023-07-29T14:19:06;101087.38;;;29.25;69.44
61337;BME280;47212;41.326;2.104;2023-07-29T14:24:12;101070.50;;;29.21;70.80
61337;BME280;47212;41.326;2.104;2023-07-29T14:29:15;101080.63;;;29.29;70.65
61337;BME280;47212;41.326;2.104;2023-07-29T14:34:25;101072.22;;;29.29;71.21
61337;BME280;47212;41.326;2.104;2023-07-29T14:39:34;101060.97;;;29.26;69.75
61337;BME280;47212;41.326;2.104;2023-07-29T14:44:39;101061.81;;;29.30;70.44
61337;BME280;47212;41.326;2.104;2023-07-29T14:49:57;101053.72;;;29.25;70.08
61337;BME280;47212;41.326;2.104;2023-07-29T14:55:04;101052.78;;;29.13;70.79
61337;BME280;47212;41.326;2.104;2023-07-29T15:00:09;101039.97;;;29.12;71.45
61337;BME280;47212;41.326;2.104;2023-07-29T15:05:19;101035.97;;;29.13;71.40
61337;BME280;47212;41.326;2.104;2023-07-29T15:10:24;101033.78;;;29.30;70.70
61337;BME280;47212;41.326;2.104;2023-07-29T15:15:28;101036.44;;;29.49;70.16
61337;BME280;47212;41.326;2.104;2023-07-29T15:20:31;101027.75;;;29.61;69.72
61337;BME280;47212;41.326;2.104;2023-07-29T15:25:39;101022.34;;;29.45;68.81
61337;BME280;47212;41.326;2.104;2023-07-29T15:30:47;101019.75;;;29.30;69.44
61337;BME280;47212;41.326;2.104;2023-07-29T15:35:55;101021.06;;;29.39;69.44
61337;BME280;47212;41.326;2.104;2023-07-29T15:41:03;101027.69;;;29.54;69.40
61337;BME280;47212;41.326;2.104;2023-07-29T15:46:09;101024.34;;;29.45;69.19
61337;BME280;47212;41.326;2.104;2023-07-29T15:51:14;101027.41;;;29.33;69.00
61337;BME280;47212;41.326;2.104;2023-07-29T15:56:23;101022.63;;;29.37;69.88
61337;BME280;47212;41.326;2.104;2023-07-29T16:01:29;101018.63;;;29.38;68.21
61337;BME280;47212;41.326;2.104;2023-07-29T16:06:38;101038.81;;;29.47;69.03
61337;BME280;47212;41.326;2.104;2023-07-29T16:11:53;101044.88;;;29.49;69.93
61337;BME280;47212;41.326;2.104;2023-07-29T16:16:56;101032.34;;;29.43;71.89
61337;BME280;47212;41.326;2.104;2023-07-29T16:22:03;101037.94;;;29.43;71.37
61337;BME280;47212;41.326;2.104;2023-07-29T16:27:08;101028.25;;;29.37;71.94
61337;BME280;47212;41.326;2.104;2023-07-29T16:32:14;101033.44;;;29.35;72.74
61337;BME280;47212;41.326;2.104;2023-07-29T16:37:31;101026.09;;;29.23;73.58
61337;BME280;47212;41.326;2.104;2023-07-29T16:42:36;101031.66;;;29.20;74.64
61337;BME280;47212;41.326;2.104;2023-07-29T16:47:50;101036.06;;;29.21;74.61
61337;BME280;47212;41.326;2.104;2023-07-29T16:52:57;101033.16;;;29.13;74.88
61337;BME280;47212;41.326;2.104;2023-07-29T16:58:05;101034.69;;;29.07;74.76
61337;BME280;47212;41.326;2.104;2023-07-29T17:03:12;101033.50;;;29.08;74.80
61337;BME280;47212;41.326;2.104;2023-07-29T17:08:22;101034.66;;;29.04;75.07
61337;BME280;47212;41.326;2.104;2023-07-29T17:13:28;101039.78;;;28.98;75.10
61337;BME280;47212;41.326;2.104;2023-07-29T17:18:36;101023.25;;;28.90;75.07
61337;BME280;47212;41.326;2.104;2023-07-29T17:23:58;101030.00;;;28.85;75.41
61337;BME280;47212;41.326;2.104;2023-07-29T17:29:05;101035.47;;;28.78;75.90
61337;BME280;47212;41.326;2.104;2023-07-29T17:34:11;101041.09;;;28.78;75.44
61337;BME280;47212;41.326;2.104;2023-07-29T17:39:13;101047.53;;;28.82;75.69
61337;BME280;47212;41.326;2.104;2023-07-29T17:44:20;101041.84;;;28.75;75.89
61337;BME280;47212;41.326;2.104;2023-07-29T17:49:26;101050.69;;;28.77;75.98
61337;BME280;47212;41.326;2.104;2023-07-29T17:54:31;101058.94;;;28.66;75.40
61337;BME280;47212;41.326;2.104;2023-07-29T17:59:34;101052.28;;;28.51;75.80
61337;BME280;47212;41.326;2.104;2023-07-29T18:04:41;101041.41;;;28.46;76.60
61337;BME280;47212;41.326;2.104;2023-07-29T18:09:50;101052.91;;;28.41;76.72
61337;BME280;47212;41.326;2.104;2023-07-29T18:14:58;101049.38;;;28.44;76.32
61337;BME280;47212;41.326;2.104;2023-07-29T18:20:01;101061.25;;;28.38;76.87
61337;BME280;47212;41.326;2.104;2023-07-29T18:25:12;101085.97;;;28.32;77.17
61337;BME280;47212;41.326;2.104;2023-07-29T18:30:19;101069.91;;;28.29;78.09
61337;BME280;47212;41.326;2.104;2023-07-29T18:35:24;101082.63;;;28.23;78.84
61337;BME280;47212;41.326;2.104;2023-07-29T18:40:29;101086.44;;;28.15;79.13
61337;BME280;47212;41.326;2.104;2023-07-29T18:45:38;101083.16;;;28.09;78.89
61337;BME280;47212;41.326;2.104;2023-07-29T18:50:44;101102.81;;;28.13;79.48
61337;BME280;47212;41.326;2.104;2023-07-29T18:55:49;101099.56;;;28.11;80.14
61337;BME280;47212;41.326;2.104;2023-07-29T19:01:04;101086.19;;;28.01;80.46
61337;BME280;47212;41.326;2.104;2023-07-29T19:06:12;101094.84;;;27.92;80.93
61337;BME280;47212;41.326;2.104;2023-07-29T19:11:19;101097.13;;;27.86;81.58
61337;BME280;47212;41.326;2.104;2023-07-29T19:16:30;101103.03;;;27.81;81.87
61337;BME280;47212;41.326;2.104;2023-07-29T19:21:46;101112.16;;;27.78;82.10
61337;BME280;47212;41.326;2.104;2023-07-29T19:26:52;101108.81;;;27.73;82.10
61337;BME280;47212;41.326;2.104;2023-07-29T19:31:57;101109.50;;;27.66;82.65
61337;BME280;47212;41.326;2.104;2023-07-29T19:37:05;101125.09;;;27.67;82.00
61337;BME280;47212;41.326;2.104;2023-07-29T19:42:12;101115.09;;;27.66;82.63
61337;BME280;47212;41.326;2.104;2023-07-29T19:47:24;101120.63;;;27.63;83.01
61337;BME280;47212;41.326;2.104;2023-07-29T19:52:32;101120.50;;;27.59;83.22
61337;BME280;47212;41.326;2.104;2023-07-29T19:57:39;101128.81;;;27.55;83.00
61337;BME280;47212;41.326;2.104;2023-07-29T20:02:43;101141.94;;;27.51;83.48
61337;BME280;47212;41.326;2.104;2023-07-29T20:08:11;101155.53;;;27.53;84.25
61337;BME280;47212;41.326;2.104;2023-07-29T20:13:22;101162.69;;;27.50;84.03
61337;BME280;47212;41.326;2.104;2023-07-29T20:18:42;101159.06;;;27.50;84.29
61337;BME280;47212;41.326;2.104;2023-07-29T20:23:51;101157.09;;;27.50;84.37
61337;BME280;47212;41.326;2.104;2023-07-29T20:28:59;101166.28;;;27.51;84.12
61337;BME280;47212;41.326;2.104;2023-07-29T20:34:08;101168.25;;;27.50;83.92
61337;BME280;47212;41.326;2.104;2023-07-29T20:39:21;101177.75;;;27.46;84.09
61337;BME280;47212;41.326;2.104;2023-07-29T20:44:30;101186.59;;;27.48;84.17
61337;BME280;47212;41.326;2.104;2023-07-29T20:49:42;101185.94;;;27.54;85.04
61337;BME280;47212;41.326;2.104;2023-07-29T20:54:46;101180.78;;;27.56;84.55
61337;BME280;47212;41.326;2.104;2023-07-29T20:59:51;101200.72;;;27.55;84.46
61337;BME280;47212;41.326;2.104;2023-07-29T21:04:57;101205.56;;;27.58;84.57
61337;BME280;47212;41.326;2.104;2023-07-29T21:10:02;101217.22;;;27.60;84.94
61337;BME280;47212;41.326;2.104;2023-07-29T21:15:10;101227.69;;;27.63;84.83
61337;BME280;47212;41.326;2.104;2023-07-29T21:20:20;101232.72;;;27.57;84.94
61337;BME280;47212;41.326;2.104;2023-07-29T21:25:33;101251.06;;;27.55;85.04
61337;BME280;47212;41.326;2.104;2023-07-29T21:30:43;101254.75;;;27.59;85.16
61337;BME280;47212;41.326;2.104;2023-07-29T21:35:59;101251.06;;;27.55;85.15
61337;BME280;47212;41.326;2.104;2023-07-29T21:41:04;101250.16;;;27.51;84.93
61337;BME280;47212;41.326;2.104;2023-07-29T21:46:11;101241.63;;;27.44;85.77
61337;BME280;47212;41.326;2.104;2023-07-29T21:51:21;101254.63;;;27.36;85.38
61337;BME280;47212;41.326;2.104;2023-07-29T21:56:28;101252.47;;;27.29;85.47
61337;BME280;47212;41.326;2.104;2023-07-29T22:01:35;101263.28;;;27.31;85.72
61337;BME280;47212;41.326;2.104;2023-07-29T22:06:40;101263.44;;;27.38;85.46
61337;BME280;47212;41.326;2.104;2023-07-29T22:11:46;101272.72;;;27.42;85.38
61337;BME280;47212;41.326;2.104;2023-07-29T22:16:50;101279.56;;;27.45;85.02
61337;BME280;47212;41.326;2.104;2023-07-29T22:22:05;101286.44;;;27.47;84.88
61337;BME280;47212;41.326;2.104;2023-07-29T22:27:18;101286.88;;;27.49;84.31
61337;BME280;47212;41.326;2.104;2023-07-29T22:32:28;101286.06;;;27.49;84.44
61337;BME280;47212;41.326;2.104;2023-07-29T22:37:33;101290.41;;;27.46;84.57
61337;BME280;47212;41.326;2.104;2023-07-29T22:42:38;101295.19;;;27.46;84.28
61337;BME280;47212;41.326;2.104;2023-07-29T22:47:46;101295.53;;;27.44;84.05
61337;BME280;47212;41.326;2.104;2023-07-29T22:52:53;101311.50;;;27.44;84.11
61337;BME280;47212;41.326;2.104;2023-07-29T22:57:56;101311.06;;;27.42;83.45
61337;BME280;47212;41.326;2.104;2023-07-29T23:03:04;101314.59;;;27.39;82.31
61337;BME280;47212;41.326;2.104;2023-07-29T23:08:18;101313.69;;;27.35;81.29
61337;BME280;47212;41.326;2.104;2023-07-29T23:13:23;101322.06;;;27.35;80.99
61337;BME280;47212;41.326;2.104;2023-07-29T23:18:31;101326.41;;;27.32;80.54
61337;BME280;47212;41.326;2.104;2023-07-29T23:23:36;101344.00;;;27.33;80.33
61337;BME280;47212;41.326;2.104;2023-07-29T23:28:41;101330.72;;;27.29;79.77
61337;BME280;47212;41.326;2.104;2023-07-29T23:33:54;101329.13;;;27.28;79.28
61337;BME280;47212;41.326;2.104;2023-07-29T23:39:03;101331.91;;;27.28;78.84
61337;BME280;47212;41.326;2.104;2023-07-29T23:44:09;101323.06;;;27.26;78.72
61337;BME280;47212;41.326;2.104;2023-07-29T23:49:18;101325.88;;;27.26;78.85
61337;BME280;47212;41.326;2.104;2023-07-29T23:54:24;101320.28;;;27.26;78.66
61337;BME280;47212;41.326;2.104;2023-07-29T23:59:30;101315.84;;;27.25;78.80
